Terminal Aerodrome Forecast
Issued by NWS Sioux Falls, SD

Home | Current Version | Previous Version | Text Only | Print | Product List | Glossary On
Versions: 1 2 3 4 5 6 7 8 9 10 11 12 13 14 15
233
FTUS43 KFSD 220522
TAFHON
TAF
KHON 220522Z 2206/2306 15011KT P6SM FEW250 WS015/17040KT
     FM221200 15013G22KT P6SM BKN050
      TEMPO 2213/2216 BKN030
     FM230200 17014KT P6SM BKN040
     FM230500 14010KT P6SM -TSRA OVC035CB=

USA.gov is the U.S. government's official web portal to all federal, state and local government web resources and services.